x

Bw Pioneer Buoy - Walker Ridge 249 (42360) Wave Buoy

4:00pm - Sat 30th Jul 2016 All times are UTC.

  • Sig Wave height 1.6ft
  • Peak Period 6s
  • Wind
    7mph
  • Sea Temp 87°f
  • Air Temp 85°f
  • Sea Pressure 1018.7mb

More Historic Weather Station data

Upgrade to MSW Pro to gain access to the past 30 days of data for over 8000 Wavebouys and Weather Stations around the globe.

Join Pro

Comparision Forecast

View Surf forecast
   
Sat 07/30 4:00pm 1.6ft 6s 7
mph
1018.7mb 87f 85f
3:00pm 2ft 5s 9
mph
1018mb 87f 85f
2:00pm 2ft 6s 7 9 mph 1017.7mb 87f 85f
1:00pm 2ft 6s 7 9 mph 1017.5mb 87f 85f
12:00pm 2ft 6s 9
mph
1016.8mb 87f 85f
11:00am 2ft 6s 11
mph
1016.5mb 87f 85f
10:00am 2ft 6s 9 11 mph 1016mb 87f 85f
9:00am 2ft 6s 9 11 mph 1015.8mb 87f 85f
8:00am 2.5ft 6s 7 9 mph 1015.8mb 87f 84f
7:00am 2.5ft 7s 9
mph
1016mb 88f 84f
6:00am 2.5ft 7s 16 18 mph 1016.3mb 88f 85f
5:00am 2.5ft 7s 9
mph
1016.5mb 88f 85f
4:00am 2.5ft 6s 9
mph
1016.8mb 88f 85f
3:00am 2.5ft 6s 9 11 mph 1016.8mb 88f 86f
2:00am 2.5ft 7s 11 13 mph 1016.3mb 88f 86f
1:00am 2.5ft 6s 9 11 mph 1016mb 89f 86f
12:00am 3ft 7s 9 11 mph 1015.5mb 89f 86f
Fri 07/29 11:00pm 3ft 7s 7
mph
1015.8mb 89f 86f
10:00pm 3.5ft 7s 4 7 mph 1015.8mb 88f 87f
9:00pm 3ft 7s 4
mph
1016mb 88f 86f
8:00pm 3.5ft 7s 2 4 mph 1016.8mb 88f 86f
7:00pm 3ft 7s 2 4 mph 1017mb 88f 86f
6:00pm 3.5ft 7s 2
mph
1017.7mb 88f 87f
5:00pm 3.5ft 8s 4
mph
1017.7mb 88f 86f
4:00pm 3.5ft 7s 4 7 mph 1017.5mb 87f 86f
3:00pm 3.5ft 7s 4 7 mph 1017.5mb 87f 85f
2:00pm 3.5ft 8s 4 7 mph 1017mb 87f 85f
1:00pm 3.5ft 7s 2 4 mph 1016.8mb 87f 85f
12:00pm 3ft 8s 4 7 mph 1016mb 87f 84f
11:00am 3ft 8s 7 9 mph 1015.8mb 87f 84f
10:00am 3ft 8s 4
mph
1015.3mb 87f 84f
9:00am 2.5ft 6s 11 16 mph 1015.3mb 87f 83f
8:00am 3ft 6s 2 4 mph 1015.5mb 87f 83f
7:00am 3ft 7s 7 16 mph 1016mb 87f 81f
6:00am 3ft 7s 7
mph
1016.5mb 87f 84f
5:00am 3ft 6s 11 13 mph 1016.8mb 87f 84f
4:00am 3ft 7s 9 11 mph 1016.8mb 87f 84f
3:00am 3.5ft 7s 9
mph
1016.5mb 87f 84f
2:00am 3.5ft 6s 9 11 mph 1015.5mb 87f 84f
1:00am 3.5ft 7s 13
mph
1015.3mb 87f 84f
12:00am 3.5ft 7s 11 13 mph 1015mb 87f 85f
Thu 07/28 11:00pm 3.5ft 7s 11
mph
1015mb 87f 84f
10:00pm 3ft 6s 9
mph
1015.3mb 87f 84f
9:00pm 3ft 6s 9
mph
1015.3mb 87f 83f
8:00pm 3ft 6s 9 11 mph 1015.8mb 87f 83f
7:00pm 2.5ft 6s 13 16 mph 1016.5mb 87f 82f
6:00pm 3ft 6s 13
mph
1017.5mb 87f 85f
5:00pm 2.5ft 7s 16 18 mph 1017.5mb 87f 84f
4:00pm 3ft 6s 2
mph
1017.7mb 87f 86f
3:00pm 3ft 6s 4 7 mph 1017.5mb 87f 85f
2:00pm 3ft 6s 9 11 mph 1017.2mb 87f 85f
1:00pm 3ft 6s 9
mph
1016.8mb 87f 85f
12:00pm 3ft 7s 7 9 mph 1016mb 87f 85f
11:00am 3ft 5s 9 11 mph 1015.8mb - 85f
10:00am 3ft 7s 7 9 mph 1015.8mb 87f 84f
9:00am 3ft 7s 11
mph
1015.8mb 87f 85f
8:00am 2.5ft 6s 11 13 mph 1015.5mb 87f 85f
7:00am 3ft 6s 13 16 mph 1016mb 87f 85f
6:00am 2.5ft 5s 13
mph
1016mb 87f 85f
5:00am 2.5ft 6s 13 16 mph 1016.3mb 87f 85f
4:00am 3ft 6s 13 16 mph 1016.5mb 87f 85f
3:00am 3ft 6s 9 11 mph 1016.8mb 87f 85f
2:00am 3ft 6s 9
mph
1016.3mb 87f 85f
1:00am 2.5ft 6s 9
mph
1015.8mb 87f 85f
12:00am 3ft 6s 7 9 mph 1015.5mb 87f 85f
Wed 07/27 11:00pm 3.5ft 6s 9 11 mph 1015.5mb 87f 86f
10:00pm 3ft 5s 11 13 mph 1015.5mb 87f 86f
9:00pm 2.5ft 6s 13
mph
1016mb 87f 86f
8:00pm 3.5ft 6s 13
mph
1016.5mb 87f 86f
7:00pm 3ft 6s 11 13 mph 1017.5mb 87f 86f
6:00pm 2.5ft 6s 13
mph
1017.7mb 87f 86f
5:00pm 2.5ft 6s 13
mph
1018mb 87f 86f
4:00pm 2.5ft 5s 11 13 mph 1018mb 87f 86f
3:00pm 2.5ft 5s 11 13 mph 1017.2mb 87f 85f
2:00pm 2.5ft 5s 11 13 mph 1017mb 87f 85f
1:00pm 2.5ft 6s 11
mph
1016.8mb 87f 85f
12:00pm 2.5ft 5s 11 13 mph 1016.3mb 87f 84f
11:00am 2.5ft 5s 9 11 mph 1015.8mb 87f 84f
10:00am 2.5ft 6s 9 11 mph 1015.5mb 87f 84f
9:00am 3ft 5s 9 11 mph 1015.3mb - 84f
8:00am 3ft 5s 9
mph
1015.3mb 87f 83f
7:00am 3ft 5s 11 13 mph 1015.5mb 87f 83f
6:00am 2.5ft 5s 16 18 mph 1016mb 87f 83f
5:00am 3ft 5s 11
mph
1016.3mb 87f 83f
4:00am 3.5ft 5s 7
mph
1016.8mb 87f 82f
3:00am 4.5ft 5s 2 4 mph 1016.3mb 87f 80f
2:00am 4.5ft 6s 4 9 mph 1016.3mb 87f 78f
1:00am 3ft 5s 25 34 mph 1016.5mb 87f 76f
12:00am 3.5ft 5s 13 18 mph 1015.3mb 87f 82f
Tue 07/26 11:00pm 2.5ft 4s 18 22 mph 1015.3mb 87f 79f
10:00pm 3ft 5s 9 11 mph 1014.8mb 87f 86f
9:00pm 3ft 5s 13 16 mph 1015mb 87f 86f
8:00pm 3ft 4s 18 20 mph 1015.5mb 87f 86f
7:00pm 3ft 4s 18 22 mph 1016mb 87f 85f
6:00pm 3ft 4s 20 22 mph 1016mb 87f 85f